Time;durP1;ratioP1;P1;durP2;ratioP2;P2;SDS_P1;SDS_P2;PMS_P1;PMS_P2;Temp;Humidity;BMP_temperature;BMP_pressure;BME280_temperature;BME280_humidity;BME280_pressure;Samples;Min_cycle;Max_cycle;Signal;HPM_P1;HPM_P2
2022/04/17 00:01:30;;;;;;;10.32;6.40;;;;;;;7.40;47.30;102925.41;4978202;28;20030;-79
2022/04/17 00:03:56;;;;;;;10.48;6.70;;;;;;;7.37;47.03;102924.50;4978128;28;20049;-79
2022/04/17 00:06:21;;;;;;;9.20;6.63;;;;;;;7.31;49.61;102925.25;4979232;28;20471;-79
2022/04/17 00:08:46;;;;;;;10.10;6.20;;;;;;;7.24;48.90;102918.16;4982298;28;20061;-79
2022/04/17 00:11:12;;;;;;;9.82;6.55;;;;;;;7.23;47.64;102919.00;4983801;28;20109;-79
2022/04/17 00:13:37;;;;;;;9.18;6.35;;;;;;;7.17;48.71;102927.50;4978376;28;20035;-79
2022/04/17 00:16:03;;;;;;;11.68;6.68;;;;;;;7.14;48.14;102919.66;4977646;28;20053;-79
2022/04/17 00:18:28;;;;;;;13.48;7.50;;;;;;;7.14;45.81;102920.56;4980709;28;20394;-79
2022/04/17 00:20:53;;;;;;;10.80;6.60;;;;;;;7.16;46.72;102922.31;4979103;28;20117;-79
2022/04/17 00:23:19;;;;;;;9.95;6.43;;;;;;;7.16;46.03;102919.72;4980269;28;20054;-79
2022/04/17 00:25:44;;;;;;;12.00;7.43;;;;;;;7.13;46.95;102926.59;4979144;28;20041;-79
2022/04/17 00:28:10;;;;;;;10.95;6.50;;;;;;;7.13;45.95;102921.41;4981334;28;20104;-79
2022/04/17 00:30:35;;;;;;;11.77;7.18;;;;;;;7.12;45.19;102924.81;4980064;28;21016;-79
2022/04/17 00:33:00;;;;;;;11.23;6.90;;;;;;;7.12;46.57;102926.53;4979434;28;20100;-79
2022/04/17 00:35:26;;;;;;;9.80;6.38;;;;;;;7.11;46.57;102917.00;4977210;28;20030;-79
2022/04/17 00:37:51;;;;;;;11.02;7.18;;;;;;;7.09;46.33;102919.59;4979166;28;20390;-79
2022/04/17 00:40:16;;;;;;;12.23;7.10;;;;;;;7.06;45.62;102911.75;4977325;28;20088;-79
2022/04/17 00:42:42;;;;;;;11.80;6.97;;;;;;;7.04;45.97;102916.00;4977376;28;20102;-78
2022/04/17 00:45:08;;;;;;;11.88;6.40;;;;;;;7.01;45.86;102913.34;4977235;28;20022;-78
2022/04/17 00:47:33;;;;;;;9.70;6.00;;;;;;;6.99;45.38;102910.72;4981347;28;20035;-78
2022/04/17 00:49:58;;;;;;;9.10;6.10;;;;;;;6.98;44.95;102913.31;4980297;28;20439;-79
2022/04/17 00:52:24;;;;;;;10.15;6.13;;;;;;;6.98;45.12;102910.72;4978761;28;20031;-79
2022/04/17 00:54:52;;;;;;;9.98;6.07;;;;;;;6.97;45.47;102912.41;4978330;28;20053;-79
2022/04/17 00:57:17;;;;;;;8.80;5.60;;;;;;;6.96;44.87;102912.38;4977121;28;20027;-78
2022/04/17 00:59:45;;;;;;;9.18;5.85;;;;;;;6.97;45.23;102909.81;4979287;28;20040;-79
2022/04/17 01:02:12;;;;;;;8.25;5.70;;;;;;;6.96;45.13;102907.22;4981981;28;20513;-78
2022/04/17 01:04:39;;;;;;;9.63;5.82;;;;;;;6.92;44.79;102901.06;4979432;28;20500;-79
2022/04/17 01:07:05;;;;;;;10.27;6.05;;;;;;;6.93;45.32;102907.13;4963419;28;20038;-79
2022/04/17 01:09:30;;;;;;;10.23;5.60;;;;;;;6.93;44.87;102904.53;4978546;28;20038;-79
2022/04/17 01:11:57;;;;;;;8.10;5.32;;;;;;;6.91;44.91;102906.22;4976473;28;20081;-78
2022/04/17 01:14:23;;;;;;;11.23;5.78;;;;;;;6.92;44.96;102903.66;4977818;28;20038;-79
2022/04/17 01:16:49;;;;;;;9.85;5.68;;;;;;;6.91;45.43;102908.81;4976327;28;20027;-79
2022/04/17 01:19:14;;;;;;;8.20;5.63;;;;;;;6.91;45.38;102916.56;4980384;28;20050;-79
2022/04/17 01:21:41;;;;;;;8.45;5.30;;;;;;;6.88;44.75;102908.72;4978743;28;20050;-79
2022/04/17 01:26:56;;;;;;;8.00;4.72;;;;;;;6.87;45.86;102904.41;4976927;28;20105;-79
2022/04/17 01:29:31;;;;;;;7.65;4.88;;;;;;;6.86;45.67;102902.66;4980854;28;20034;-79
2022/04/17 01:32:00;;;;;;;7.85;5.00;;;;;;;6.81;45.58;102908.59;4976772;28;20066;-79
2022/04/17 01:34:26;;;;;;;8.57;5.22;;;;;;;6.77;46.66;102909.38;4978921;28;20388;-78
2022/04/17 01:36:52;;;;;;;7.18;4.93;;;;;;;6.76;46.10;102909.31;4978640;28;21227;-78
2022/04/17 01:39:18;;;;;;;9.35;4.80;;;;;;;6.75;46.11;102905.88;4979502;28;20532;-78
2022/04/17 01:41:44;;;;;;;7.88;5.13;;;;;;;6.72;46.19;102907.50;4979700;28;20069;-79
2022/04/17 01:44:10;;;;;;;10.55;5.20;;;;;;;6.70;46.80;102906.59;4976637;28;20039;-78
2022/04/17 01:46:35;;;;;;;8.48;4.93;;;;;;;6.67;47.23;102913.44;4976637;28;20022;-79
2022/04/17 01:49:01;;;;;;;7.80;4.72;;;;;;;6.64;45.96;102909.91;4978434;28;20164;-78
2022/04/17 01:51:26;;;;;;;7.60;4.80;;;;;;;6.58;47.33;102909.75;4977132;28;20482;-79
2022/04/17 01:53:52;;;;;;;10.30;5.03;;;;;;;6.51;47.14;102908.75;4977697;28;20041;-79
2022/04/17 01:56:17;;;;;;;8.55;5.15;;;;;;;6.47;46.77;102912.06;4961766;28;20059;-78
2022/04/17 01:58:43;;;;;;;9.02;4.93;;;;;;;6.41;49.44;102906.75;4982194;28;20065;-78
2022/04/17 02:01:08;;;;;;;8.50;5.03;;;;;;;6.37;47.17;102908.38;4978892;28;20065;-78
2022/04/17 02:03:33;;;;;;;9.05;5.57;;;;;;;6.31;47.74;102906.53;4978673;28;20390;-78
2022/04/17 02:06:00;;;;;;;7.88;5.40;;;;;;;6.26;48.52;102899.50;4982196;28;20069;-78
2022/04/17 02:08:26;;;;;;;10.40;5.25;;;;;;;6.18;48.17;102896.72;4977827;28;20034;-78
2022/04/17 02:10:52;;;;;;;8.70;5.30;;;;;;;6.12;47.69;102894.84;4960211;28;20454;-78
2022/04/17 02:13:17;;;;;;;8.80;5.38;;;;;;;6.11;47.88;102892.22;4977469;28;20069;-78
2022/04/17 02:15:42;;;;;;;9.50;5.30;;;;;;;6.06;48.27;102892.94;4979682;28;20034;-78
2022/04/17 02:18:07;;;;;;;8.98;5.35;;;;;;;6.05;47.88;102903.25;4980658;28;20066;-78
2022/04/17 02:20:33;;;;;;;7.93;5.05;;;;;;;6.01;49.85;102896.25;4980661;28;20046;-78
2022/04/17 02:22:59;;;;;;;9.38;5.38;;;;;;;5.99;49.45;102893.59;4976351;28;20050;-79
2022/04/17 02:25:25;;;;;;;7.45;4.82;;;;;;;5.96;50.61;102892.66;4959967;28;20032;-78
2022/04/17 02:27:50;;;;;;;7.38;4.90;;;;;;;5.91;50.37;102896.00;4979313;28;20449;-78
2022/04/17 02:30:16;;;;;;;7.75;4.72;;;;;;;5.90;48.89;102898.50;4977701;28;20031;-78
2022/04/17 02:32:41;;;;;;;8.48;5.25;;;;;;;5.87;49.03;102893.28;4978772;28;20030;-78
2022/04/17 02:35:06;;;;;;;8.30;5.35;;;;;;;5.84;49.06;102888.91;4977175;28;20023;-78
2022/04/17 02:37:36;;;;;;;8.77;4.95;;;;;;;5.80;47.99;102889.66;4980834;28;20393;-78
2022/04/17 02:40:01;;;;;;;9.10;4.88;;;;;;;5.76;50.60;102893.00;4977551;28;20493;-78
2022/04/17 02:42:27;;;;;;;7.50;5.03;;;;;;;5.70;51.37;102891.13;4979676;28;20022;-78
2022/04/17 02:44:52;;;;;;;9.18;5.40;;;;;;;5.69;51.77;102891.06;4973415;28;20521;-78
2022/04/17 02:50:01;;;;;;;8.25;5.10;;;;;;;5.62;50.41;102885.75;4977548;28;20041;-78
2022/04/17 02:52:26;;;;;;;8.13;4.93;;;;;;;5.57;50.50;102892.47;4978558;28;20038;-78
2022/04/17 02:54:53;;;;;;;8.13;4.78;;;;;;;5.52;52.57;102890.59;4979284;28;20077;-78
2022/04/17 02:57:19;;;;;;;6.47;4.50;;;;;;;5.45;52.64;102886.97;4958000;28;20031;-78
2022/04/17 02:59:45;;;;;;;7.60;4.90;;;;;;;5.42;52.72;102879.13;4975267;28;20041;-78
2022/04/17 03:07:37;;;;;;;7.78;4.53;;;;;;;5.29;52.32;102872.75;4975777;28;20052;-78
2022/04/17 03:10:03;;;;;;;6.57;4.45;;;;;;;5.24;52.91;102879.47;4977742;28;20038;-78
2022/04/17 03:12:28;;;;;;;6.78;4.47;;;;;;;5.20;53.40;102886.25;4977718;28;20438;-78
2022/04/17 03:14:54;;;;;;;7.28;4.68;;;;;;;5.18;52.03;102880.16;4975915;28;20478;-78
2022/04/17 03:17:19;;;;;;;8.18;5.00;;;;;;;5.12;53.88;102880.00;4962317;28;20086;-78
2022/04/17 03:19:44;;;;;;;6.53;4.50;;;;;;;5.07;53.23;102884.13;4976364;28;20165;-78
2022/04/17 03:22:10;;;;;;;6.90;4.25;;;;;;;5.00;54.04;102886.50;4975847;28;20059;-78
2022/04/17 03:24:35;;;;;;;7.03;4.20;;;;;;;4.97;54.45;102883.84;4977329;28;20015;-78
2022/04/17 03:27:00;;;;;;;6.30;4.38;;;;;;;4.93;53.99;102881.13;4982202;28;20509;-78
2022/04/17 03:29:25;;;;;;;6.95;4.18;;;;;;;4.88;54.66;102873.25;4983203;28;20466;-78
2022/04/17 03:31:51;;;;;;;7.90;4.85;;;;;;;4.87;51.92;102868.91;4983919;28;20057;-78
2022/04/17 03:34:16;;;;;;;8.88;4.65;;;;;;;4.88;51.71;102867.19;4981929;28;20042;-78
2022/04/17 03:36:41;;;;;;;7.32;4.80;;;;;;;4.86;52.46;102862.00;4977557;28;20038;-78
2022/04/17 03:39:07;;;;;;;8.05;4.93;;;;;;;4.84;54.27;102869.72;4978331;28;20069;-78
2022/04/17 03:41:34;;;;;;;7.28;4.70;;;;;;;4.79;55.93;102870.38;4980112;28;20041;-78
2022/04/17 03:44:02;;;;;;;7.40;4.65;;;;;;;4.74;55.26;102861.63;4978820;28;20052;-78
2022/04/17 03:46:27;;;;;;;6.93;4.70;;;;;;;4.73;53.50;102867.63;4981043;28;20045;-78
2022/04/17 03:48:53;;;;;;;8.73;5.10;;;;;;;4.73;52.83;102865.03;4981288;28;20027;-78
2022/04/17 03:51:18;;;;;;;7.78;5.03;;;;;;;4.70;53.00;102856.38;4982211;28;20038;-78
2022/04/17 03:53:43;;;;;;;8.43;5.45;;;;;;;4.69;53.55;102864.94;4981165;28;20076;-78
2022/04/17 03:56:08;;;;;;;8.73;5.28;;;;;;;4.66;53.78;102863.97;4981357;28;20030;-78
2022/04/17 03:58:34;;;;;;;8.20;5.35;;;;;;;4.63;54.16;102864.72;4978829;28;20686;-78
2022/04/17 04:00:59;;;;;;;9.48;5.38;;;;;;;4.55;54.71;102859.34;4980730;28;20061;-78
2022/04/17 04:03:24;;;;;;;7.97;5.60;;;;;;;4.49;56.09;102860.84;4979200;28;20030;-78
2022/04/17 04:05:50;;;;;;;8.23;5.07;;;;;;;4.43;56.49;102865.81;4980950;28;20081;-78
2022/04/17 04:08:15;;;;;;;7.90;4.90;;;;;;;4.37;56.13;102862.22;4981025;28;20438;-78
2022/04/17 04:10:40;;;;;;;9.90;5.53;;;;;;;4.33;55.64;102857.78;4981230;28;20030;-78
2022/04/17 04:13:05;;;;;;;7.28;4.97;;;;;;;4.30;56.01;102860.25;4962124;28;20090;-78
2022/04/17 04:15:31;;;;;;;8.30;5.05;;;;;;;4.30;54.26;102854.22;4981822;28;20037;-78
2022/04/17 04:17:57;;;;;;;14.67;5.27;;;;;;;4.32;55.08;102852.59;4980140;28;20044;-78
2022/04/17 04:20:22;;;;;;;8.10;5.40;;;;;;;4.30;54.47;102844.78;4979160;28;20030;-78
2022/04/17 04:22:47;;;;;;;7.43;5.35;;;;;;;4.28;54.89;102840.41;4982453;28;20049;-78
2022/04/17 04:25:12;;;;;;;8.00;5.33;;;;;;;4.25;54.99;102830.91;4977917;28;20026;-78
2022/04/17 04:30:22;;;;;;;7.87;5.23;;;;;;;4.15;56.12;102836.53;4977781;28;20041;-78
2022/04/17 04:32:55;;;;;;;9.85;4.68;;;;;;;4.08;57.06;102838.94;4980200;28;20027;-78
2022/04/17 04:35:21;;;;;;;9.50;4.87;;;;;;;4.07;58.27;102833.72;4983308;28;20033;-78
2022/04/17 04:37:46;;;;;;;6.63;4.55;;;;;;;4.04;57.77;102831.94;4977398;28;20026;-78
2022/04/17 04:40:12;;;;;;;10.10;5.30;;;;;;;3.98;56.21;102823.97;4981492;28;20031;-78
2022/04/17 04:42:37;;;;;;;8.98;5.03;;;;;;;3.99;56.04;102824.88;4979939;28;20030;-78
2022/04/17 04:47:46;;;;;;;9.37;4.77;;;;;;;3.95;56.51;102824.75;4980678;28;20562;-78
2022/04/17 04:50:12;;;;;;;11.60;5.20;;;;;;;3.89;57.42;102824.53;4977508;28;20110;-78
2022/04/17 04:52:37;;;;;;;8.02;4.75;;;;;;;3.84;56.69;102827.78;4961718;28;20403;-77
2022/04/17 04:55:06;;;;;;;6.50;4.63;;;;;;;3.81;57.54;102823.41;4981922;28;20046;-78
2022/04/17 04:57:34;;;;;;;6.27;4.17;;;;;;;3.80;56.86;102826.81;4964074;28;20030;-78
2022/04/17 05:00:00;;;;;;;8.52;4.60;;;;;;;3.80;57.09;102819.09;4979227;28;20110;-77
2022/04/17 05:02:25;;;;;;;10.13;4.70;;;;;;;3.82;56.82;102824.28;4979112;28;20437;-78
2022/04/17 05:04:51;;;;;;;7.60;4.40;;;;;;;3.84;57.79;102825.22;4980998;28;20566;-78
2022/04/17 05:07:16;;;;;;;7.93;5.00;;;;;;;3.89;58.46;102828.84;4978200;28;20081;-78
2022/04/17 05:09:41;;;;;;;6.80;4.60;;;;;;;3.91;58.29;102827.19;4978313;28;20037;-78
2022/04/17 05:12:07;;;;;;;6.60;4.40;;;;;;;3.97;58.72;102829.09;4977823;28;20034;-78
2022/04/17 05:14:32;;;;;;;6.73;4.50;;;;;;;3.98;59.54;102823.97;4977202;28;20030;-78
2022/04/17 05:16:57;;;;;;;8.50;4.63;;;;;;;3.99;58.85;102828.31;4978439;28;20525;-78
2022/04/17 05:19:27;;;;;;;6.90;5.00;;;;;;;3.99;58.64;102832.59;4981897;28;20042;-78
2022/04/17 05:21:57;;;;;;;9.00;4.95;;;;;;;3.99;59.86;102823.16;4963127;28;20066;-78
2022/04/17 05:24:24;;;;;;;8.23;4.80;;;;;;;4.04;59.08;102828.47;4963357;28;20030;-78
2022/04/17 05:26:49;;;;;;;7.93;4.93;;;;;;;4.09;58.44;102832.97;4979539;28;20106;-78
2022/04/17 05:29:14;;;;;;;6.57;4.83;;;;;;;4.15;58.65;102823.66;4977739;28;20105;-78
2022/04/17 05:31:40;;;;;;;10.30;4.97;;;;;;;4.20;58.28;102832.44;4974870;28;20042;-78
2022/04/17 05:34:05;;;;;;;7.35;4.80;;;;;;;4.24;58.11;102829.13;4981099;28;20029;-78
2022/04/17 05:36:30;;;;;;;8.30;4.60;;;;;;;4.29;58.48;102830.13;4978653;28;20074;-78
2022/04/17 05:38:56;;;;;;;5.73;4.23;;;;;;;4.33;58.51;102829.44;4979071;28;20049;-78
2022/04/17 05:41:26;;;;;;;7.53;4.60;;;;;;;4.36;59.76;102839.84;4980551;28;20071;-78
2022/04/17 05:43:53;;;;;;;7.20;4.63;;;;;;;4.40;60.05;102835.66;4970421;28;20489;-78
2022/04/17 05:46:18;;;;;;;8.32;4.50;;;;;;;4.46;60.36;102829.81;4975723;28;20026;-78
2022/04/17 05:48:44;;;;;;;7.78;4.78;;;;;;;4.50;59.77;102832.56;4980578;28;20040;-78
2022/04/17 05:51:09;;;;;;;6.50;4.70;;;;;;;4.56;58.70;102826.72;4979029;28;20033;-78
2022/04/17 05:53:34;;;;;;;7.05;4.50;;;;;;;4.63;59.44;102833.78;4977270;28;20035;-78
2022/04/17 05:56:00;;;;;;;6.95;4.60;;;;;;;4.71;57.87;102822.03;4980498;28;20054;-78
2022/04/17 05:58:25;;;;;;;7.78;4.78;;;;;;;4.81;57.57;102828.34;4980167;28;20035;-78
2022/04/17 06:00:50;;;;;;;7.25;4.55;;;;;;;4.94;58.14;102833.88;4977973;28;20038;-78
2022/04/17 06:03:16;;;;;;;6.55;4.90;;;;;;;5.05;58.12;102829.03;4976864;28;20027;-78
2022/04/17 06:05:42;;;;;;;9.73;4.97;;;;;;;5.16;57.49;102833.69;4977877;28;20026;-78
2022/04/17 06:08:07;;;;;;;7.45;4.50;;;;;;;5.27;56.57;102834.00;4976990;28;20019;-78
2022/04/17 06:10:32;;;;;;;7.55;4.93;;;;;;;5.38;57.02;102830.84;4975952;28;20042;-78
2022/04/17 06:12:58;;;;;;;8.00;4.97;;;;;;;5.47;56.51;102833.66;4979079;28;20034;-78
2022/04/17 06:15:23;;;;;;;8.20;5.13;;;;;;;5.57;56.12;102839.94;4961563;28;20030;-78
2022/04/17 06:17:48;;;;;;;6.93;4.70;;;;;;;5.66;56.66;102836.75;4976734;28;20633;-78
2022/04/17 06:20:15;;;;;;;9.13;5.00;;;;;;;5.74;56.22;102840.41;4978079;28;20030;-78
2022/04/17 06:22:41;;;;;;;10.23;4.95;;;;;;;5.83;56.42;102835.47;4976026;28;20054;-78
2022/04/17 06:25:08;;;;;;;7.40;4.57;;;;;;;5.92;56.71;102825.41;4977645;28;20048;-78
2022/04/17 06:27:39;;;;;;;7.93;5.00;;;;;;;6.01;56.28;102824.81;4980318;28;20030;-78
2022/04/17 06:30:12;;;;;;;6.47;4.65;;;;;;;6.10;55.50;102824.16;4961746;28;20394;-78
2022/04/17 06:32:39;;;;;;;8.57;5.10;;;;;;;6.18;54.12;102827.78;4978258;28;20047;-78
2022/04/17 06:35:08;;;;;;;7.15;4.78;;;;;;;6.28;54.62;102818.56;4977004;28;20019;-78
2022/04/17 06:37:48;;;;;;;7.20;4.75;;;;;;;6.38;54.55;102819.66;4974827;28;20030;-78
2022/04/17 06:40:16;;;;;;;6.22;4.57;;;;;;;6.45;53.93;102811.22;4978225;28;20029;-78
2022/04/17 06:42:41;;;;;;;7.43;4.82;;;;;;;6.55;53.85;102811.41;4978087;28;20482;-77
2022/04/17 06:45:07;;;;;;;8.70;4.95;;;;;;;6.62;53.96;102808.13;4983800;28;20145;-78
2022/04/17 06:47:32;;;;;;;7.85;5.18;;;;;;;6.70;54.67;102806.59;4981722;28;20065;-78
2022/04/17 06:49:57;;;;;;;6.65;4.43;;;;;;;6.77;52.88;102808.47;4982327;28;20026;-78
2022/04/17 06:52:22;;;;;;;6.15;4.40;;;;;;;6.84;53.32;102812.94;4964354;28;20399;-78
2022/04/17 06:54:48;;;;;;;7.45;4.13;;;;;;;6.93;52.60;102812.25;4984626;28;20110;-78
2022/04/17 06:57:13;;;;;;;6.18;4.20;;;;;;;7.01;53.62;102817.59;4981712;28;21411;-77
2022/04/17 06:59:39;;;;;;;5.68;4.03;;;;;;;7.08;53.28;102814.28;4981229;28;20185;-78
2022/04/17 07:02:05;;;;;;;6.03;4.18;;;;;;;7.17;52.72;102815.34;4982463;28;20062;-78
2022/04/17 07:04:30;;;;;;;6.30;3.63;;;;;;;7.26;52.13;102815.50;4980213;28;20029;-78
2022/04/17 07:06:56;;;;;;;6.95;4.03;;;;;;;7.33;52.20;102816.50;4980639;28;20030;-78
2022/04/17 07:09:21;;;;;;;5.18;3.63;;;;;;;7.41;51.37;102815.81;4981646;28;20601;-78
2022/04/17 07:11:46;;;;;;;5.70;3.90;;;;;;;7.49;51.33;102817.69;4982448;28;20042;-78
2022/04/17 07:14:14;;;;;;;5.63;3.83;;;;;;;7.56;51.17;102804.88;4984389;28;20023;-78
2022/04/17 07:16:40;;;;;;;7.50;3.78;;;;;;;7.65;51.43;102811.94;4980394;28;20041;-78
2022/04/17 07:19:06;;;;;;;5.80;3.70;;;;;;;7.72;50.08;102803.44;4980020;28;20030;-78
2022/04/17 07:21:31;;;;;;;5.65;3.10;;;;;;;7.80;49.47;102795.78;4982724;28;20486;-77
2022/04/17 07:23:57;;;;;;;4.78;3.63;;;;;;;7.88;50.30;102801.09;4981196;28;20026;-78
2022/04/17 07:26:23;;;;;;;4.95;3.50;;;;;;;7.96;51.55;102796.94;4965556;28;20105;-78
2022/04/17 07:28:48;;;;;;;4.70;3.33;;;;;;;8.01;49.14;102795.31;4984530;28;20062;-78
2022/04/17 07:31:13;;;;;;;4.80;3.67;;;;;;;8.05;50.73;102786.72;4983484;28;20041;-78
2022/04/17 07:33:38;;;;;;;4.43;3.13;;;;;;;8.12;49.58;102789.41;4981274;28;20492;-78
2022/04/17 07:36:04;;;;;;;5.22;3.30;;;;;;;8.17;49.88;102796.41;4979791;28;20088;-78
2022/04/17 07:38:29;;;;;;;7.30;3.30;;;;;;;8.25;50.14;102793.06;4981029;28;20080;-78
2022/04/17 07:40:54;;;;;;;5.43;3.72;;;;;;;8.32;48.72;102790.59;4982131;28;20374;-79
2022/04/17 07:43:19;;;;;;;5.68;3.53;;;;;;;8.39;49.62;102788.06;4983466;28;20109;-78
2022/04/17 07:45:45;;;;;;;4.60;3.38;;;;;;;8.45;47.86;102781.28;4981696;28;20377;-78
2022/04/17 07:48:10;;;;;;;4.20;3.05;;;;;;;8.53;48.73;102778.84;4982398;28;20089;-79
2022/04/17 07:50:36;;;;;;;4.90;3.35;;;;;;;8.61;50.41;102774.59;4982188;28;20024;-78
2022/04/17 07:53:01;;;;;;;6.35;3.00;;;;;;;8.71;48.38;102782.53;4978816;28;20034;-78
2022/04/17 07:55:27;;;;;;;4.70;3.10;;;;;;;8.78;48.44;102774.84;4981629;28;20030;-78
2022/04/17 07:58:12;;;;;;;4.72;3.03;;;;;;;8.84;48.70;102773.16;4981172;28;20030;-78
2022/04/17 08:00:46;;;;;;;4.38;3.10;;;;;;;8.93;48.20;102773.28;4982147;28;20026;-78
2022/04/17 08:03:35;;;;;;;4.95;3.28;;;;;;;9.02;48.98;102772.53;4983416;28;20073;-78
2022/04/17 08:06:01;;;;;;;4.97;3.20;;;;;;;9.11;47.12;102770.03;4981852;28;20129;-78
2022/04/17 08:08:27;;;;;;;5.47;3.08;;;;;;;9.18;46.49;102769.25;4980967;28;20030;-79
2022/04/17 08:10:52;;;;;;;6.20;2.95;;;;;;;9.27;47.05;102763.28;4981754;28;20661;-78
2022/04/17 08:13:17;;;;;;;5.95;3.28;;;;;;;9.33;46.88;102763.34;4982483;28;20497;-78
2022/04/17 08:15:43;;;;;;;6.20;3.20;;;;;;;9.38;46.79;102760.81;4984261;28;20034;-79
2022/04/17 08:18:08;;;;;;;8.27;3.08;;;;;;;9.43;47.13;102753.91;4984914;28;20031;-78
2022/04/17 08:20:34;;;;;;;4.15;3.30;;;;;;;9.48;45.96;102762.63;4984872;28;20018;-79
2022/04/17 08:23:00;;;;;;;3.95;2.78;;;;;;;9.52;45.88;102754.03;4963912;28;20490;-79
2022/04/17 08:25:25;;;;;;;6.05;3.20;;;;;;;9.60;47.67;102761.00;4964159;28;20019;-79
2022/04/17 08:27:53;;;;;;;4.50;2.95;;;;;;;9.68;46.38;102761.97;4963319;28;20145;-79
2022/04/17 08:30:20;;;;;;;5.22;2.60;;;;;;;9.76;46.09;102756.81;4964454;28;20451;-79
2022/04/17 08:32:45;;;;;;;4.40;3.10;;;;;;;9.83;45.39;102759.50;4967559;28;20030;-79
2022/04/17 08:35:10;;;;;;;5.20;2.83;;;;;;;9.90;45.51;102755.22;4970001;28;20050;-79
2022/04/17 08:37:35;;;;;;;4.88;3.03;;;;;;;9.96;46.06;102754.38;4971184;28;20421;-79
2022/04/17 08:40:01;;;;;;;4.60;2.97;;;;;;;10.00;45.34;102751.81;4967278;28;20033;-78
2022/04/17 08:42:28;;;;;;;4.63;2.72;;;;;;;10.06;44.18;102756.22;4964346;28;20074;-79
2022/04/17 08:44:53;;;;;;;5.25;3.15;;;;;;;10.11;44.40;102757.09;4962366;28;20046;-79
2022/04/17 08:47:19;;;;;;;3.95;2.88;;;;;;;10.19;46.23;102751.94;4964576;28;20034;-78
2022/04/17 08:49:45;;;;;;;4.30;2.97;;;;;;;10.26;46.76;102751.13;4963783;28;20534;-78
2022/04/17 08:52:15;;;;;;;4.63;3.13;;;;;;;10.32;46.23;102747.69;4962673;28;20034;-78
2022/04/17 08:54:42;;;;;;;4.93;3.03;;;;;;;10.36;47.36;102743.38;4964399;28;20039;-80
2022/04/17 08:57:08;;;;;;;5.80;3.00;;;;;;;10.44;46.15;102746.94;4965484;28;20062;-79
2022/04/17 08:59:33;;;;;;;5.05;3.22;;;;;;;10.51;44.96;102745.22;4965131;28;20077;-78
2022/04/17 09:02:06;;;;;;;3.50;2.58;;;;;;;10.60;49.47;102750.47;4967568;28;20042;-78
2022/04/17 09:04:32;;;;;;;4.10;2.83;;;;;;;10.69;50.10;102752.25;4969056;28;20034;-78
2022/04/17 09:06:57;;;;;;;5.07;2.95;;;;;;;10.75;49.26;102747.09;4967660;28;20118;-79
2022/04/17 09:09:22;;;;;;;6.78;3.10;;;;;;;10.80;47.47;102737.56;4967803;28;20391;-78
2022/04/17 09:11:54;;;;;;;11.27;2.78;;;;;;;10.83;44.35;102734.09;4963642;28;20386;-78
2022/04/17 09:14:20;;;;;;;5.53;2.80;;;;;;;10.89;47.99;102739.34;4963605;28;20026;-78
2022/04/17 09:16:49;;;;;;;3.53;2.80;;;;;;;10.92;45.27;102744.56;4964096;28;20031;-78
2022/04/17 09:19:19;;;;;;;4.68;3.25;;;;;;;10.96;44.55;102741.06;4966324;28;20093;-79
2022/04/17 09:21:45;;;;;;;4.45;2.63;;;;;;;10.98;45.64;102734.13;4967818;28;20388;-78
2022/04/17 09:24:16;;;;;;;3.75;2.30;;;;;;;11.07;46.38;102731.59;4986654;28;20477;-78
2022/04/17 09:26:58;;;;;;;3.60;2.70;;;;;;;11.11;44.76;102723.75;4980320;28;20548;-79
2022/04/17 09:29:28;;;;;;;4.22;2.75;;;;;;;11.16;45.68;102724.63;4985677;28;20034;-79
2022/04/17 09:31:57;;;;;;;5.32;2.75;;;;;;;11.23;45.93;102723.78;4983935;28;20042;-78
2022/04/17 09:34:23;;;;;;;3.45;2.60;;;;;;;11.28;46.87;102710.78;4983902;28;20109;-78
2022/04/17 09:36:59;;;;;;;4.97;2.70;;;;;;;11.33;45.28;102707.28;4983323;28;20460;-78
2022/04/17 09:39:32;;;;;;;3.40;2.22;;;;;;;11.41;46.58;102709.06;4967738;28;20026;-78
2022/04/17 09:41:59;;;;;;;4.35;2.70;;;;;;;11.45;43.39;102705.56;4982420;28;20026;-78
2022/04/17 09:44:37;;;;;;;4.78;2.70;;;;;;;11.48;44.31;102701.25;4983869;28;20089;-79
2022/04/17 09:47:09;;;;;;;5.07;2.38;;;;;;;11.51;44.60;102693.44;4984445;28;20109;-78
2022/04/17 09:49:54;;;;;;;3.95;2.63;;;;;;;11.58;44.66;102698.63;4985554;28;20034;-78
2022/04/17 09:52:20;;;;;;;4.20;2.60;;;;;;;11.66;47.87;102689.94;4983253;28;20029;-79
2022/04/17 09:54:47;;;;;;;3.38;2.38;;;;;;;11.74;44.56;102687.31;4981949;28;20105;-78
2022/04/17 09:57:25;;;;;;;3.92;2.67;;;;;;;11.79;44.11;102684.69;4986751;28;20027;-78
2022/04/17 09:59:51;;;;;;;4.88;2.30;;;;;;;11.83;45.26;102673.41;4968770;28;20031;-79
2022/04/17 10:02:18;;;;;;;4.03;2.25;;;;;;;11.84;43.18;102665.59;4985235;28;20037;-79
2022/04/17 10:04:45;;;;;;;4.22;2.53;;;;;;;11.90;43.74;102672.53;4982940;28;20022;-79
2022/04/17 10:07:11;;;;;;;4.25;2.45;;;;;;;11.98;43.20;102665.56;4986782;28;20116;-79
2022/04/17 10:09:37;;;;;;;3.88;2.50;;;;;;;12.07;44.09;102662.06;4987711;28;20026;-78
2022/04/17 10:12:03;;;;;;;4.35;2.30;;;;;;;12.09;41.52;102660.34;4987091;28;20080;-78
2022/04/17 10:14:29;;;;;;;4.20;2.88;;;;;;;12.08;41.15;102656.00;4981384;28;20034;-79
2022/04/17 10:16:57;;;;;;;4.72;2.60;;;;;;;12.13;48.82;102648.13;4983906;28;20034;-79
2022/04/17 10:19:25;;;;;;;4.63;2.55;;;;;;;12.18;42.22;102635.94;4986542;28;20489;-78
2022/04/17 10:21:51;;;;;;;6.10;2.78;;;;;;;12.26;41.86;102639.41;4985354;28;20054;-79
2022/04/17 10:24:18;;;;;;;5.45;2.65;;;;;;;12.29;39.94;102628.97;4983564;28;20034;-79
2022/04/17 10:26:49;;;;;;;3.40;2.40;;;;;;;12.35;45.35;102629.81;4984912;28;20034;-79
2022/04/17 10:29:23;;;;;;;5.78;2.92;;;;;;;12.41;41.79;102619.34;4986036;28;20034;-78
2022/04/17 10:32:26;;;;;;;4.38;2.70;;;;;;;12.52;43.88;102617.53;4985297;28;20102;-79
2022/04/17 10:35:29;;;;;;;5.05;2.80;;;;;;;12.62;44.08;102625.34;4982900;28;20026;-79
2022/04/17 10:38:16;;;;;;;6.38;2.88;;;;;;;12.67;43.32;102611.38;4980947;28;20026;-78
2022/04/17 10:40:51;;;;;;;7.63;2.88;;;;;;;12.71;44.04;102601.75;4981725;28;20538;-79
2022/04/17 10:43:16;;;;;;;2.90;2.35;;;;;;;12.77;42.24;102606.97;4984556;28;20117;-78
2022/04/17 10:46:08;;;;;;;4.15;2.50;;;;;;;12.82;41.49;102599.94;4983244;28;20510;-79
2022/04/17 10:48:41;;;;;;;3.90;2.40;;;;;;;12.87;42.56;102594.72;4986239;28;20034;-78
2022/04/17 10:51:16;;;;;;;3.45;2.47;;;;;;;12.92;41.10;102589.44;4984362;28;20448;-79
2022/04/17 10:53:52;;;;;;;4.93;2.25;;;;;;;12.97;40.62;102588.53;4983910;28;20105;-78
2022/04/17 10:56:18;;;;;;;5.65;2.50;;;;;;;13.05;44.33;102580.63;4983057;28;20098;-79
2022/04/17 10:58:57;;;;;;;3.88;2.60;;;;;;;13.13;41.35;102571.00;4985731;28;20042;-78
2022/04/17 11:01:41;;;;;;;3.75;2.30;;;;;;;13.24;39.50;102575.25;4984754;28;20051;-79
2022/04/17 11:04:22;;;;;;;3.08;2.15;;;;;;;13.31;41.83;102569.09;4983172;28;20045;-79
2022/04/17 11:07:13;;;;;;;4.13;2.50;;;;;;;13.42;40.42;102574.22;4984371;28;20520;-80
2022/04/17 11:09:42;;;;;;;4.93;2.22;;;;;;;13.48;36.96;102564.59;4985246;28;20397;-78
2022/04/17 11:12:19;;;;;;;3.67;2.40;;;;;;;13.55;39.45;102562.78;4983416;28;20152;-78
2022/04/17 11:14:56;;;;;;;4.63;2.60;;;;;;;13.62;38.99;102560.97;4981308;28;20030;-78
2022/04/17 11:17:23;;;;;;;3.85;2.30;;;;;;;13.70;37.47;102550.41;4982196;28;20053;-78
2022/04/17 11:19:52;;;;;;;4.97;2.50;;;;;;;13.78;35.04;102557.28;4981672;28;20053;-78
2022/04/17 11:22:17;;;;;;;3.17;2.50;;;;;;;13.90;36.51;102552.78;4981309;28;20485;-78
2022/04/17 11:25:12;;;;;;;4.00;2.28;;;;;;;14.04;39.12;102552.63;4982793;28;20593;-79
2022/04/17 11:27:46;;;;;;;4.78;2.33;;;;;;;14.16;38.27;102546.38;4959639;28;20038;-79
2022/04/17 11:30:14;;;;;;;4.22;2.60;;;;;;;14.25;35.09;102536.63;4965081;28;20386;-78
2022/04/17 11:32:39;;;;;;;4.28;2.35;;;;;;;14.36;33.21;102533.00;4983035;28;20046;-78
2022/04/17 11:35:11;;;;;;;3.42;2.63;;;;;;;14.49;35.78;102531.06;4982210;28;20538;-79
2022/04/17 11:37:36;;;;;;;4.40;2.50;;;;;;;14.62;39.16;102529.97;4983612;28;20100;-79
2022/04/17 11:40:15;;;;;;;3.85;2.70;;;;;;;14.72;36.51;102526.34;4982974;28;20038;-78
2022/04/17 11:42:49;;;;;;;4.25;2.60;;;;;;;14.86;36.93;102525.25;4984354;28;20062;-79
2022/04/17 11:45:25;;;;;;;5.78;2.28;;;;;;;14.98;35.28;102516.31;4968555;28;20292;-79
2022/04/17 11:47:52;;;;;;;8.02;2.50;;;;;;;15.08;36.03;102507.41;4987220;28;20351;-79